createdAt,value
2022-12-18T00:00:51.346Z,-4.28
2022-12-18T00:01:51.424Z,-4.28
2022-12-18T00:02:51.405Z,-4.18
2022-12-18T00:03:51.478Z,-4.15
2022-12-18T00:04:51.277Z,-4.21
2022-12-18T00:05:51.261Z,-4.25
2022-12-18T00:06:51.251Z,-4.45
2022-12-18T00:07:51.228Z,-4.56
2022-12-18T00:08:51.214Z,-4.60
2022-12-18T00:09:51.199Z,-4.48
2022-12-18T00:10:51.186Z,-4.59
2022-12-18T00:11:51.164Z,-4.63
2022-12-18T00:12:51.150Z,-4.54
2022-12-18T00:13:51.133Z,-4.45
2022-12-18T00:14:51.138Z,-4.57
2022-12-18T00:15:51.128Z,-4.53
2022-12-18T00:16:51.079Z,-4.56
2022-12-18T00:17:51.067Z,-4.49
2022-12-18T00:18:51.046Z,-4.56
2022-12-18T00:19:51.027Z,-4.66
2022-12-18T00:20:51.020Z,-4.67
2022-12-18T00:21:50.999Z,-4.64
2022-12-18T00:22:50.984Z,-4.63
2022-12-18T00:23:50.961Z,-4.63
2022-12-18T00:24:50.951Z,-4.56
2022-12-18T00:25:50.929Z,-4.49
2022-12-18T00:26:50.911Z,-4.45
2022-12-18T00:27:50.894Z,-4.34
2022-12-18T00:28:50.886Z,-4.23
2022-12-18T00:29:50.864Z,-4.20
2022-12-18T00:30:50.842Z,-4.44
2022-12-18T00:31:50.885Z,-4.53
2022-12-18T00:32:50.813Z,-4.52
2022-12-18T00:33:54.102Z,-4.53
2022-12-18T00:34:50.784Z,-4.56
2022-12-18T00:35:50.772Z,-4.38
2022-12-18T00:36:50.751Z,-4.38
2022-12-18T00:37:50.727Z,-4.42
2022-12-18T00:38:50.718Z,-4.53
2022-12-18T00:39:50.703Z,-4.73
2022-12-18T00:40:50.689Z,-4.67
2022-12-18T00:41:50.667Z,-4.81
2022-12-18T00:42:50.653Z,-4.70
2022-12-18T00:43:50.634Z,-4.73
2022-12-18T00:44:50.621Z,-4.73
2022-12-18T00:45:50.630Z,-4.60
2022-12-18T00:46:50.591Z,-4.53
2022-12-18T00:47:50.569Z,-4.49
2022-12-18T00:48:50.566Z,-4.53
2022-12-18T00:49:50.543Z,-4.56
2022-12-18T00:50:50.516Z,-4.46
2022-12-18T00:51:50.498Z,-4.49
2022-12-18T00:52:50.485Z,-4.60
2022-12-18T00:53:50.466Z,-4.60
2022-12-18T00:54:50.457Z,-4.59
2022-12-18T00:55:50.433Z,-4.54
2022-12-18T00:56:50.417Z,-4.59
2022-12-18T00:57:50.401Z,-4.46
2022-12-18T00:58:50.379Z,-4.45
2022-12-18T00:59:50.368Z,-4.41
2022-12-18T01:00:50.398Z,-4.39
2022-12-18T01:01:50.512Z,-4.30
2022-12-18T01:02:50.462Z,-4.23
2022-12-18T01:03:50.302Z,-4.28
2022-12-18T01:04:50.289Z,-4.21
2022-12-18T01:05:50.269Z,-4.20
2022-12-18T01:06:50.249Z,-4.28
2022-12-18T01:07:50.235Z,-4.44
2022-12-18T01:08:50.213Z,-4.41
2022-12-18T01:09:50.196Z,-4.62
2022-12-18T01:10:50.202Z,-4.54
2022-12-18T01:11:50.166Z,-4.44
2022-12-18T01:12:50.160Z,-4.46
2022-12-18T01:13:50.138Z,-4.42
2022-12-18T01:14:50.124Z,-4.34
2022-12-18T01:15:50.100Z,-4.28
2022-12-18T01:16:50.157Z,-4.21
2022-12-18T01:17:50.070Z,-4.14
2022-12-18T01:18:50.061Z,-4.25
2022-12-18T01:19:50.036Z,-4.23
2022-12-18T01:20:50.026Z,-4.28
2022-12-18T01:21:50.020Z,-4.41
2022-12-18T01:22:49.993Z,-4.38
2022-12-18T01:23:49.978Z,-4.38
2022-12-18T01:24:49.957Z,-4.34
2022-12-18T01:25:49.951Z,-4.25
2022-12-18T01:26:49.920Z,-4.23
2022-12-18T01:27:49.902Z,-4.23
2022-12-18T01:28:49.889Z,-4.28
2022-12-18T01:29:49.873Z,-4.46
2022-12-18T01:30:49.860Z,-4.62
2022-12-18T01:31:49.903Z,-4.71
2022-12-18T01:32:49.824Z,-4.89
2022-12-18T01:33:49.803Z,-4.77
2022-12-18T01:34:49.792Z,-4.80
2022-12-18T01:35:49.772Z,-4.84
2022-12-18T01:36:49.779Z,-4.66
2022-12-18T01:37:49.740Z,-4.74
2022-12-18T01:38:49.719Z,-4.57
2022-12-18T01:39:49.706Z,-4.48
2022-12-18T01:40:49.698Z,-4.64
2022-12-18T01:41:49.693Z,-4.73
2022-12-18T01:42:49.657Z,-4.89
2022-12-18T01:43:49.632Z,-4.91
2022-12-18T01:44:49.628Z,-5.02
2022-12-18T01:45:49.632Z,-4.99
2022-12-18T01:46:49.590Z,-4.96
2022-12-18T01:47:49.565Z,-4.96
2022-12-18T01:48:49.547Z,-4.95
2022-12-18T01:49:49.537Z,-4.87
2022-12-18T01:50:49.518Z,-4.73
2022-12-18T01:51:49.505Z,-4.64
2022-12-18T01:52:49.484Z,-4.77
2022-12-18T01:53:49.466Z,-4.77
2022-12-18T01:54:49.449Z,-4.77
2022-12-18T01:55:49.463Z,-4.78
2022-12-18T01:56:49.424Z,-4.70
2022-12-18T01:57:49.395Z,-4.64
2022-12-18T01:58:49.386Z,-4.49
2022-12-18T01:59:49.367Z,-4.63
2022-12-18T02:00:49.366Z,-4.60
2022-12-18T02:01:49.452Z,-4.87
2022-12-18T02:02:49.433Z,-4.87
2022-12-18T02:03:49.299Z,-4.87
2022-12-18T02:04:49.751Z,-4.98
2022-12-18T02:05:49.270Z,-5.18
2022-12-18T02:06:49.248Z,-5.05
2022-12-18T02:07:49.232Z,-5.07
2022-12-18T02:08:49.212Z,-5.09
2022-12-18T02:09:49.202Z,-5.03
2022-12-18T02:10:49.183Z,-5.03
2022-12-18T02:11:49.166Z,-4.85
2022-12-18T02:12:49.232Z,-4.93
2022-12-18T02:13:49.129Z,-5.05
2022-12-18T02:14:49.123Z,-5.07
2022-12-18T02:15:49.110Z,-4.96
2022-12-18T02:16:49.168Z,-4.92
2022-12-18T02:17:49.064Z,-4.91
2022-12-18T02:18:49.044Z,-4.93
2022-12-18T02:19:49.026Z,-4.96
2022-12-18T02:20:49.009Z,-4.93
2022-12-18T02:21:48.985Z,-4.93
2022-12-18T02:22:48.980Z,-4.98
2022-12-18T02:23:48.961Z,-5.21
2022-12-18T02:24:48.946Z,-5.05
2022-12-18T02:25:48.926Z,-4.96
2022-12-18T02:26:48.913Z,-4.93
2022-12-18T02:27:48.886Z,-4.81
2022-12-18T02:28:48.958Z,-4.81
2022-12-18T02:29:54.357Z,-4.78
2022-12-18T02:30:48.882Z,-4.63
2022-12-18T02:31:48.834Z,-4.70
2022-12-18T02:32:48.808Z,-4.66
2022-12-18T02:33:48.792Z,-4.78
2022-12-18T02:34:48.774Z,-4.91
2022-12-18T02:35:48.753Z,-4.85
2022-12-18T02:36:48.738Z,-4.87
2022-12-18T02:37:48.719Z,-4.87
2022-12-18T02:38:48.701Z,-4.80
2022-12-18T02:39:48.678Z,-4.77
2022-12-18T02:40:48.673Z,-4.77
2022-12-18T02:41:48.666Z,-4.66
2022-12-18T02:42:48.646Z,-4.63
2022-12-18T02:43:48.619Z,-4.66
2022-12-18T02:44:48.683Z,-4.54
2022-12-18T02:45:48.630Z,-4.66
2022-12-18T02:46:48.568Z,-4.63
2022-12-18T02:47:48.558Z,-4.62
2022-12-18T02:48:48.536Z,-4.77
2022-12-18T02:49:48.514Z,-4.78
2022-12-18T02:50:48.503Z,-4.81
2022-12-18T02:51:48.487Z,-5.02
2022-12-18T02:52:48.464Z,-4.84
2022-12-18T02:53:48.453Z,-4.96
2022-12-18T02:54:48.447Z,-4.87
2022-12-18T02:55:48.414Z,-4.87
2022-12-18T02:56:48.401Z,-4.73
2022-12-18T02:57:48.384Z,-4.80
2022-12-18T02:58:48.371Z,-4.82
2022-12-18T02:59:48.344Z,-4.78
2022-12-18T03:00:48.436Z,-4.92
2022-12-18T03:01:48.405Z,-4.99
2022-12-18T03:02:48.384Z,-4.99
2022-12-18T03:03:48.287Z,-4.99
2022-12-18T03:04:48.292Z,-5.03
2022-12-18T03:05:48.252Z,-4.96
2022-12-18T03:06:48.234Z,-4.87
2022-12-18T03:07:48.226Z,-4.81
2022-12-18T03:08:48.199Z,-4.85
2022-12-18T03:09:48.192Z,-4.81
2022-12-18T03:10:48.165Z,-4.66
2022-12-18T03:11:48.146Z,-4.73
2022-12-18T03:12:48.128Z,-4.66
2022-12-18T03:13:48.113Z,-4.53
2022-12-18T03:14:48.093Z,-4.71
2022-12-18T03:15:48.076Z,-4.77
2022-12-18T03:16:53.505Z,-4.63
2022-12-18T03:17:48.135Z,-4.62
2022-12-18T03:18:48.030Z,-4.67
2022-12-18T03:19:48.009Z,-4.53
2022-12-18T03:20:47.995Z,-4.48
2022-12-18T03:21:47.989Z,-4.48
2022-12-18T03:22:47.962Z,-4.48
2022-12-18T03:23:47.946Z,-4.59
2022-12-18T03:24:47.922Z,-4.49
2022-12-18T03:25:47.912Z,-4.59
2022-12-18T03:26:47.901Z,-4.48
2022-12-18T03:27:47.876Z,-4.57
2022-12-18T03:28:47.859Z,-4.66
2022-12-18T03:29:47.841Z,-4.67
2022-12-18T03:30:47.897Z,-4.85
2022-12-18T03:31:47.827Z,-4.91
2022-12-18T03:32:47.787Z,-5.05
2022-12-18T03:33:47.855Z,-4.99
2022-12-18T03:34:47.774Z,-4.95
2022-12-18T03:35:47.751Z,-4.99
2022-12-18T03:36:47.717Z,-4.95
2022-12-18T03:37:47.711Z,-5.01
2022-12-18T03:38:47.692Z,-4.89
2022-12-18T03:39:47.672Z,-4.92
2022-12-18T03:40:47.652Z,-4.82
2022-12-18T03:41:47.643Z,-4.84
2022-12-18T03:42:47.624Z,-4.91
2022-12-18T03:43:47.607Z,-4.77
2022-12-18T03:44:47.593Z,-4.60
2022-12-18T03:45:47.604Z,-4.66
2022-12-18T03:46:47.550Z,-4.64
2022-12-18T03:47:47.544Z,-4.57
2022-12-18T03:48:47.519Z,-4.54
2022-12-18T03:49:47.591Z,-4.71
2022-12-18T03:50:47.482Z,-4.84
2022-12-18T03:51:47.472Z,-4.89
2022-12-18T03:52:47.454Z,-4.96
2022-12-18T03:53:47.433Z,-4.92
2022-12-18T03:54:47.422Z,-4.93
2022-12-18T03:55:47.400Z,-4.87
2022-12-18T03:56:47.383Z,-4.80
2022-12-18T03:57:47.377Z,-4.82
2022-12-18T03:58:47.353Z,-4.80
2022-12-18T03:59:47.334Z,-4.87
2022-12-18T04:00:47.320Z,-4.87
2022-12-18T04:01:47.408Z,-4.87
2022-12-18T04:02:47.441Z,-4.73
2022-12-18T04:03:47.330Z,-4.74
2022-12-18T04:04:47.255Z,-4.71
2022-12-18T04:05:47.322Z,-4.66
2022-12-18T04:06:47.223Z,-4.62
2022-12-18T04:07:47.202Z,-4.66
2022-12-18T04:08:47.180Z,-4.62
2022-12-18T04:09:47.177Z,-4.57
2022-12-18T04:10:47.149Z,-4.57
2022-12-18T04:11:47.127Z,-4.59
2022-12-18T04:12:47.111Z,-4.60
2022-12-18T04:13:47.102Z,-4.59
2022-12-18T04:14:47.089Z,-4.62
2022-12-18T04:15:47.106Z,-4.81
2022-12-18T04:16:47.048Z,-4.89
2022-12-18T04:17:47.035Z,-4.95
2022-12-18T04:18:47.017Z,-4.87
2022-12-18T04:19:47.006Z,-4.87
2022-12-18T04:20:46.975Z,-4.96
2022-12-18T04:21:47.051Z,-5.18
2022-12-18T04:22:46.944Z,-5.10
2022-12-18T04:23:46.944Z,-5.05
2022-12-18T04:24:46.913Z,-5.11
2022-12-18T04:25:46.888Z,-5.02
2022-12-18T04:26:46.877Z,-5.01
2022-12-18T04:27:46.859Z,-5.03
2022-12-18T04:28:46.844Z,-4.99
2022-12-18T04:29:46.823Z,-4.98
2022-12-18T04:30:46.857Z,-4.99
2022-12-18T04:31:46.805Z,-5.02
2022-12-18T04:32:52.014Z,-5.07
2022-12-18T04:33:46.757Z,-4.96
2022-12-18T04:34:46.732Z,-4.92
2022-12-18T04:35:46.721Z,-4.93
2022-12-18T04:36:46.703Z,-4.98
2022-12-18T04:37:46.776Z,-5.07
2022-12-18T04:38:46.670Z,-5.09
2022-12-18T04:39:46.648Z,-5.09
2022-12-18T04:40:46.631Z,-5.10
2022-12-18T04:41:46.623Z,-5.03
2022-12-18T04:42:46.633Z,-5.02
2022-12-18T04:43:46.589Z,-5.02
2022-12-18T04:44:46.562Z,-5.02
2022-12-18T04:45:46.556Z,-4.98
2022-12-18T04:46:46.593Z,-4.99
2022-12-18T04:47:46.515Z,-5.05
2022-12-18T04:48:46.496Z,-5.20
2022-12-18T04:49:46.481Z,-5.13
2022-12-18T04:50:46.464Z,-5.41
2022-12-18T04:51:46.445Z,-5.43
2022-12-18T04:52:46.425Z,-5.56
2022-12-18T04:53:46.488Z,-5.43
2022-12-18T04:54:46.407Z,-5.38
2022-12-18T04:55:46.374Z,-5.35
2022-12-18T04:56:46.364Z,-5.17
2022-12-18T04:57:46.345Z,-5.10
2022-12-18T04:58:46.319Z,-5.09
2022-12-18T04:59:46.311Z,-5.07
2022-12-18T05:00:46.286Z,-4.98
2022-12-18T05:01:46.345Z,-4.91
2022-12-18T05:02:46.435Z,-4.91
2022-12-18T05:03:46.448Z,-4.95
2022-12-18T05:04:46.220Z,-4.89
2022-12-18T05:05:46.207Z,-5.17
2022-12-18T05:06:46.189Z,-5.21
2022-12-18T05:07:46.178Z,-5.22
2022-12-18T05:08:46.243Z,-5.17
2022-12-18T05:09:46.223Z,-5.21
2022-12-18T05:10:46.121Z,-5.05
2022-12-18T05:11:46.098Z,-5.09
2022-12-18T05:12:46.083Z,-5.10
2022-12-18T05:13:46.080Z,-5.21
2022-12-18T05:14:46.046Z,-5.07
2022-12-18T05:15:46.071Z,-5.24
2022-12-18T05:16:46.012Z,-5.42
2022-12-18T05:17:45.995Z,-5.70
2022-12-18T05:18:45.977Z,-5.75
2022-12-18T05:19:45.969Z,-5.83
2022-12-18T05:20:45.937Z,-5.68
2022-12-18T05:21:45.927Z,-5.67
2022-12-18T05:22:45.914Z,-5.54
2022-12-18T05:23:45.893Z,-5.42
2022-12-18T05:24:45.879Z,-5.42
2022-12-18T05:25:45.947Z,-5.47
2022-12-18T05:26:45.848Z,-5.47
2022-12-18T05:27:45.831Z,-5.46
2022-12-18T05:28:45.807Z,-5.46
2022-12-18T05:29:45.795Z,-5.61
2022-12-18T05:30:45.778Z,-5.70
2022-12-18T05:31:45.786Z,-5.60
2022-12-18T05:32:45.734Z,-5.85
2022-12-18T05:33:45.741Z,-5.75
2022-12-18T05:34:45.706Z,-5.77
2022-12-18T05:35:45.690Z,-5.71
2022-12-18T05:36:45.666Z,-5.68
2022-12-18T05:37:45.663Z,-5.63
2022-12-18T05:38:45.640Z,-5.61
2022-12-18T05:39:45.625Z,-5.61
2022-12-18T05:40:45.609Z,-5.63
2022-12-18T05:41:45.665Z,-5.61
2022-12-18T05:42:45.570Z,-5.42
2022-12-18T05:43:45.550Z,-5.38
2022-12-18T05:44:45.530Z,-5.35
2022-12-18T05:45:45.512Z,-5.32
2022-12-18T05:46:45.522Z,-5.29
2022-12-18T05:47:45.484Z,-5.43
2022-12-18T05:48:45.458Z,-5.46
2022-12-18T05:49:45.442Z,-5.67
2022-12-18T05:50:45.430Z,-5.60
2022-12-18T05:51:45.413Z,-5.43
2022-12-18T05:52:45.394Z,-5.47
2022-12-18T05:53:45.378Z,-5.49
2022-12-18T05:54:45.362Z,-5.51
2022-12-18T05:55:45.343Z,-5.59
2022-12-18T05:56:48.672Z,-5.54
2022-12-18T05:57:45.384Z,-5.43
2022-12-18T05:58:45.296Z,-5.42
2022-12-18T05:59:45.266Z,-5.36
2022-12-18T06:00:45.262Z,-5.38
2022-12-18T06:01:45.376Z,-5.31
2022-12-18T06:02:45.354Z,-5.42
2022-12-18T06:03:45.833Z,-5.36
2022-12-18T06:04:45.184Z,-5.50
2022-12-18T06:05:45.172Z,-5.41
2022-12-18T06:06:45.149Z,-5.61
2022-12-18T06:07:45.161Z,-5.63
2022-12-18T06:08:46.733Z,-5.68
2022-12-18T06:09:45.103Z,-5.74
2022-12-18T06:10:45.082Z,-5.71
2022-12-18T06:11:45.068Z,-5.75
2022-12-18T06:12:45.047Z,-5.57
2022-12-18T06:13:45.116Z,-5.67
2022-12-18T06:14:45.022Z,-5.50
2022-12-18T06:15:45.002Z,-5.53
2022-12-18T06:16:44.984Z,-5.46
2022-12-18T06:17:44.967Z,-5.41
2022-12-18T06:18:44.944Z,-5.46
2022-12-18T06:19:44.942Z,-5.46
2022-12-18T06:20:44.911Z,-5.61
2022-12-18T06:21:44.894Z,-5.54
2022-12-18T06:22:44.881Z,-5.43
2022-12-18T06:23:44.862Z,-5.41
2022-12-18T06:24:44.850Z,-5.31
2022-12-18T06:25:44.827Z,-5.33
2022-12-18T06:26:44.809Z,-5.32
2022-12-18T06:27:44.801Z,-5.33
2022-12-18T06:28:44.774Z,-5.29
2022-12-18T06:29:44.844Z,-5.20
2022-12-18T06:30:44.747Z,-5.31
2022-12-18T06:31:44.779Z,-5.38
2022-12-18T06:32:44.702Z,-5.29
2022-12-18T06:33:44.693Z,-5.47
2022-12-18T06:34:44.676Z,-5.42
2022-12-18T06:35:44.655Z,-5.50
2022-12-18T06:36:44.636Z,-5.54
2022-12-18T06:37:44.620Z,-5.51
2022-12-18T06:38:44.607Z,-5.57
2022-12-18T06:39:44.585Z,-5.60
2022-12-18T06:40:44.571Z,-5.56
2022-12-18T06:41:44.559Z,-5.50
2022-12-18T06:42:44.535Z,-5.42
2022-12-18T06:43:44.529Z,-5.38
2022-12-18T06:44:44.503Z,-5.36
2022-12-18T06:45:49.625Z,-5.36
2022-12-18T06:46:44.551Z,-5.32
2022-12-18T06:47:44.448Z,-5.33
2022-12-18T06:48:44.431Z,-5.41
2022-12-18T06:49:44.415Z,-5.39
2022-12-18T06:50:44.397Z,-5.38
2022-12-18T06:51:44.383Z,-5.35
2022-12-18T06:52:44.370Z,-5.18
2022-12-18T06:53:44.350Z,-5.13
2022-12-18T06:54:44.332Z,-5.21
2022-12-18T06:55:44.312Z,-5.32
2022-12-18T06:56:44.300Z,-5.31
2022-12-18T06:57:44.279Z,-5.35
2022-12-18T06:58:44.267Z,-5.17
2022-12-18T06:59:44.242Z,-5.22
2022-12-18T07:00:44.301Z,-5.14
2022-12-18T07:01:44.462Z,-5.21
2022-12-18T07:02:44.378Z,-5.33
2022-12-18T07:03:44.971Z,-5.33
2022-12-18T07:04:44.161Z,-5.14
2022-12-18T07:05:44.136Z,-5.21
2022-12-18T07:06:44.124Z,-5.02
2022-12-18T07:07:44.117Z,-5.32
2022-12-18T07:08:44.085Z,-5.29
2022-12-18T07:09:44.072Z,-5.24
2022-12-18T07:10:47.472Z,-5.33
2022-12-18T07:11:44.041Z,-5.39
2022-12-18T07:12:44.028Z,-5.31
2022-12-18T07:13:44.110Z,-5.39
2022-12-18T07:14:43.984Z,-5.28
2022-12-18T07:15:43.972Z,-5.36
2022-12-18T07:16:43.979Z,-5.33
2022-12-18T07:17:43.938Z,-5.31
2022-12-18T07:18:44.009Z,-5.18
2022-12-18T07:19:43.898Z,-5.22
2022-12-18T07:20:43.891Z,-5.11
2022-12-18T07:21:43.868Z,-5.20
2022-12-18T07:22:43.852Z,-5.09
2022-12-18T07:23:43.832Z,-5.03
2022-12-18T07:24:43.818Z,-5.09
2022-12-18T07:25:43.797Z,-5.11
2022-12-18T07:26:43.784Z,-5.09
2022-12-18T07:27:43.765Z,-4.98
2022-12-18T07:28:43.747Z,-5.02
2022-12-18T07:29:43.739Z,-5.01
2022-12-18T07:30:43.708Z,-4.98
2022-12-18T07:31:43.746Z,-4.93
2022-12-18T07:32:43.684Z,-5.01
2022-12-18T07:33:43.692Z,-5.10
2022-12-18T07:34:43.726Z,-5.09
2022-12-18T07:35:43.622Z,-5.10
2022-12-18T07:36:43.626Z,-5.05
2022-12-18T07:37:43.597Z,-5.11
2022-12-18T07:38:43.577Z,-5.03
2022-12-18T07:39:43.563Z,-4.99
2022-12-18T07:40:43.548Z,-4.98
2022-12-18T07:41:46.685Z,-4.96
2022-12-18T07:42:43.505Z,-4.87
2022-12-18T07:43:43.900Z,-4.91
2022-12-18T07:44:43.489Z,-4.85
2022-12-18T07:45:43.486Z,-4.95
2022-12-18T07:46:43.446Z,-4.87
2022-12-18T07:47:43.420Z,-4.82
2022-12-18T07:48:43.478Z,-4.87
2022-12-18T07:49:43.394Z,-4.87
2022-12-18T07:50:43.461Z,-4.84
2022-12-18T07:51:43.358Z,-4.82
2022-12-18T07:52:43.340Z,-4.75
2022-12-18T07:53:43.613Z,-4.89
2022-12-18T07:54:43.302Z,-4.82
2022-12-18T07:56:11.172Z,-4.84
2022-12-18T07:56:43.271Z,-4.74
2022-12-18T07:57:53.305Z,-4.67
2022-12-18T07:58:43.240Z,-4.67
2022-12-18T07:59:43.220Z,-4.57
2022-12-18T08:00:43.204Z,-4.64
2022-12-18T08:01:43.260Z,-4.63
2022-12-18T08:02:43.249Z,-4.62
2022-12-18T08:03:43.365Z,-4.57
2022-12-18T08:04:43.138Z,-4.77
2022-12-18T08:05:43.122Z,-4.75
2022-12-18T08:06:47.596Z,-4.77
2022-12-18T08:07:43.087Z,-4.84
2022-12-18T08:08:43.072Z,-4.89
2022-12-18T08:09:43.049Z,-4.80
2022-12-18T08:10:43.035Z,-4.77
2022-12-18T08:11:43.017Z,-4.63
2022-12-18T08:12:43.003Z,-4.60
2022-12-18T08:13:43.395Z,-4.62
2022-12-18T08:14:42.967Z,-4.63
2022-12-18T08:15:42.963Z,-4.62
2022-12-18T08:16:42.950Z,-4.63
2022-12-18T08:17:42.917Z,-4.66
2022-12-18T08:18:42.901Z,-4.64
2022-12-18T08:19:42.876Z,-4.46
2022-12-18T08:20:42.863Z,-4.42
2022-12-18T08:21:42.847Z,-4.56
2022-12-18T08:22:42.920Z,-4.63
2022-12-18T08:23:43.617Z,-4.49
2022-12-18T08:24:42.807Z,-4.49
2022-12-18T08:25:42.787Z,-4.52
2022-12-18T08:26:51.842Z,-4.56
2022-12-18T08:27:42.750Z,-4.46
2022-12-18T08:28:42.733Z,-4.38
2022-12-18T08:29:42.716Z,-4.38
2022-12-18T08:30:42.754Z,-4.31
2022-12-18T08:31:42.697Z,-4.25
2022-12-18T08:32:42.676Z,-4.21
2022-12-18T08:33:43.259Z,-4.09
2022-12-18T08:34:42.648Z,-4.07
2022-12-18T08:35:45.744Z,-4.02
2022-12-18T08:36:42.600Z,-3.96
2022-12-18T08:37:42.610Z,-3.92
2022-12-18T08:38:42.663Z,-3.87
2022-12-18T08:39:42.556Z,-3.89
2022-12-18T08:40:42.536Z,-3.94
2022-12-18T08:41:42.525Z,-3.88
2022-12-18T08:42:42.508Z,-3.89
2022-12-18T08:43:42.883Z,-3.89
2022-12-18T08:44:42.472Z,-3.85
2022-12-18T08:45:42.477Z,-3.87
2022-12-18T08:46:42.435Z,-3.87
2022-12-18T08:47:42.424Z,-3.69
2022-12-18T08:48:42.411Z,-3.79
2022-12-18T08:49:42.397Z,-3.66
2022-12-18T08:50:42.381Z,-3.69
2022-12-18T08:51:42.364Z,-3.69
2022-12-18T08:52:42.345Z,-3.72
2022-12-18T08:53:42.617Z,-3.72
2022-12-18T08:54:42.415Z,-3.70
2022-12-18T08:55:45.847Z,-3.66
2022-12-18T08:56:42.280Z,-3.62
2022-12-18T08:57:42.271Z,-3.59
2022-12-18T08:58:42.253Z,-3.49
2022-12-18T08:59:42.230Z,-3.49
2022-12-18T09:00:42.211Z,-3.57
2022-12-18T09:01:42.301Z,-3.51
2022-12-18T09:02:42.346Z,-3.54
2022-12-18T09:03:42.518Z,-3.54
2022-12-18T09:04:42.155Z,-3.54
2022-12-18T09:05:42.139Z,-3.49
2022-12-18T09:06:42.135Z,-3.52
2022-12-18T09:07:42.106Z,-3.55
2022-12-18T09:08:42.652Z,-3.52
2022-12-18T09:09:42.089Z,-3.57
2022-12-18T09:10:43.546Z,-3.48
2022-12-18T09:11:42.047Z,-3.41
2022-12-18T09:12:42.033Z,-3.33
2022-12-18T09:13:42.603Z,-3.30
2022-12-18T09:14:42.000Z,-3.36
2022-12-18T09:15:41.991Z,-3.38
2022-12-18T09:16:42.026Z,-3.33
2022-12-18T09:17:41.954Z,-3.26
2022-12-18T09:18:42.456Z,-3.24
2022-12-18T09:19:41.920Z,-3.24
2022-12-18T09:20:41.912Z,-3.10
2022-12-18T09:21:47.561Z,-3.08
2022-12-18T09:22:41.884Z,-3.18
2022-12-18T09:23:41.860Z,-3.26
2022-12-18T09:24:41.854Z,-3.03
2022-12-18T09:25:41.831Z,-3.12
2022-12-18T09:26:47.909Z,-3.09
2022-12-18T09:27:41.886Z,-3.03
2022-12-18T09:28:42.499Z,-2.98
2022-12-18T09:29:41.774Z,-2.91
2022-12-18T09:30:41.794Z,-2.73
2022-12-18T09:31:41.745Z,-2.77
2022-12-18T09:32:41.734Z,-2.59
2022-12-18T09:33:41.722Z,-2.54
2022-12-18T09:34:41.702Z,-2.55
2022-12-18T09:35:41.688Z,-2.61
2022-12-18T09:36:41.693Z,-2.55
2022-12-18T09:37:41.657Z,-2.58
2022-12-18T09:38:42.197Z,-2.49
2022-12-18T09:39:41.625Z,-2.58
2022-12-18T09:40:41.616Z,-2.48
2022-12-18T09:41:41.599Z,-2.38
2022-12-18T09:42:41.609Z,-2.45
2022-12-18T09:43:41.650Z,-2.43
2022-12-18T09:44:45.069Z,-2.26
2022-12-18T09:45:41.556Z,-2.11
2022-12-18T09:46:41.603Z,-2.09
2022-12-18T09:47:41.515Z,-2.11
2022-12-18T09:48:41.969Z,-2.09
2022-12-18T09:49:41.492Z,-2.09
2022-12-18T09:50:41.482Z,-2.04
2022-12-18T09:51:41.455Z,-2.00
2022-12-18T09:52:41.451Z,-2.01
2022-12-18T09:53:41.424Z,-1.96
2022-12-18T09:54:41.419Z,-1.82
2022-12-18T09:55:41.398Z,-1.76
2022-12-18T09:56:41.394Z,-1.73
2022-12-18T09:57:41.372Z,-1.73
2022-12-18T09:58:41.592Z,-1.62
2022-12-18T09:59:41.428Z,-1.61
2022-12-18T10:00:41.336Z,-1.83
2022-12-18T10:01:44.364Z,-1.91
2022-12-18T10:02:41.529Z,-1.90
2022-12-18T10:03:41.286Z,-1.79
2022-12-18T10:04:41.312Z,-1.93
2022-12-18T10:05:41.259Z,-2.01
2022-12-18T10:06:41.249Z,-1.97
2022-12-18T10:07:41.232Z,-1.80
2022-12-18T10:08:41.672Z,-1.75
2022-12-18T10:09:41.208Z,-1.65
2022-12-18T10:10:41.196Z,-1.59
2022-12-18T10:11:41.180Z,-1.52
2022-12-18T10:12:41.186Z,-1.47
2022-12-18T10:13:41.154Z,-1.44
2022-12-18T10:14:41.145Z,-1.40
2022-12-18T10:15:41.332Z,-1.33
2022-12-18T10:16:41.120Z,-1.16
2022-12-18T10:17:41.104Z,-1.00
2022-12-18T10:18:41.413Z,-0.95
2022-12-18T10:19:41.080Z,-0.82
2022-12-18T10:20:41.067Z,-0.76
2022-12-18T10:21:41.058Z,-0.76
2022-12-18T10:22:41.040Z,-0.78
2022-12-18T10:23:45.051Z,-0.67
2022-12-18T10:24:41.014Z,-0.78
2022-12-18T10:25:41.007Z,-0.67
2022-12-18T10:26:40.983Z,-0.55
2022-12-18T10:27:40.978Z,-0.40
2022-12-18T10:28:41.476Z,-0.58
2022-12-18T10:29:40.964Z,-0.38
2022-12-18T10:30:41.017Z,-0.16
2022-12-18T10:31:41.149Z,-0.16
2022-12-18T10:32:40.923Z,-0.10
2022-12-18T10:33:40.916Z,0.02
2022-12-18T10:34:40.896Z,-0.01
2022-12-18T10:35:40.891Z,-0.11
2022-12-18T10:36:40.871Z,0.02
2022-12-18T10:37:40.864Z,-0.16
2022-12-18T10:38:41.231Z,0.11
2022-12-18T10:39:40.837Z,0.27
2022-12-18T10:40:40.826Z,0.47
2022-12-18T10:41:40.816Z,0.73
2022-12-18T10:42:40.804Z,0.73
2022-12-18T10:43:40.799Z,0.64
2022-12-18T10:44:40.794Z,0.74
2022-12-18T10:45:40.775Z,0.91
2022-12-18T10:46:40.818Z,1.05
2022-12-18T10:47:40.859Z,1.02
2022-12-18T10:48:41.122Z,1.05
2022-12-18T10:49:40.731Z,0.96
2022-12-18T10:51:09.766Z,1.02
2022-12-18T10:51:40.712Z,0.92
2022-12-18T10:52:43.619Z,0.98
2022-12-18T10:53:40.695Z,0.81
2022-12-18T10:54:40.684Z,0.92
2022-12-18T10:55:40.676Z,0.96
2022-12-18T10:56:40.666Z,1.05
2022-12-18T10:57:40.660Z,1.16
2022-12-18T10:58:41.087Z,1.13
2022-12-18T10:59:40.643Z,1.16
2022-12-18T11:00:40.624Z,1.00
2022-12-18T11:01:40.730Z,1.13
2022-12-18T11:02:40.736Z,1.27
2022-12-18T11:03:40.816Z,1.03
2022-12-18T11:04:40.583Z,1.06
2022-12-18T11:05:40.604Z,0.98
2022-12-18T11:06:40.569Z,1.03
2022-12-18T11:07:40.553Z,1.20
2022-12-18T11:08:40.949Z,1.27
2022-12-18T11:09:40.530Z,1.28
2022-12-18T11:10:40.525Z,1.31
2022-12-18T11:11:40.509Z,1.30
2022-12-18T11:12:40.505Z,1.10
2022-12-18T11:13:40.498Z,1.23
2022-12-18T11:14:46.354Z,1.24
2022-12-18T11:15:40.523Z,1.30
2022-12-18T11:16:41.014Z,1.31
2022-12-18T11:17:40.452Z,1.31
2022-12-18T11:18:40.897Z,1.44
2022-12-18T11:19:40.507Z,1.34
2022-12-18T11:20:40.419Z,1.17
2022-12-18T11:21:40.416Z,1.06
2022-12-18T11:22:40.396Z,1.09
2022-12-18T11:23:40.394Z,1.09
2022-12-18T11:24:40.379Z,1.18
2022-12-18T11:25:40.373Z,1.28
2022-12-18T11:26:40.364Z,1.27
2022-12-18T11:27:40.346Z,1.12
2022-12-18T11:28:40.642Z,1.17
2022-12-18T11:29:46.254Z,1.03
2022-12-18T11:30:40.316Z,0.94
2022-12-18T11:31:40.321Z,0.88
2022-12-18T11:32:40.294Z,0.74
2022-12-18T11:33:49.392Z,0.85
2022-12-18T11:34:40.275Z,0.96
2022-12-18T11:35:40.344Z,1.03
2022-12-18T11:36:40.252Z,0.92
2022-12-18T11:37:40.245Z,0.90
2022-12-18T11:38:40.568Z,0.96
2022-12-18T11:39:40.227Z,0.98
2022-12-18T11:40:41.564Z,0.92
2022-12-18T11:41:40.200Z,0.87
2022-12-18T11:42:40.188Z,0.64
2022-12-18T11:43:40.175Z,0.50
2022-12-18T11:44:40.163Z,0.48
2022-12-18T11:45:40.151Z,0.44
2022-12-18T11:46:40.190Z,0.36
2022-12-18T11:47:40.130Z,0.51
2022-12-18T11:48:40.620Z,0.56
2022-12-18T11:49:40.107Z,0.47
2022-12-18T11:50:40.093Z,0.45
2022-12-18T11:51:46.017Z,0.50
2022-12-18T11:52:40.142Z,0.50
2022-12-18T11:53:40.055Z,0.37
2022-12-18T11:54:40.047Z,0.30
2022-12-18T11:55:40.033Z,0.22
2022-12-18T11:56:40.018Z,0.18
2022-12-18T11:57:40.008Z,0.26
2022-12-18T11:58:40.169Z,0.23
2022-12-18T11:59:39.984Z,0.37
2022-12-18T12:00:39.986Z,0.37
2022-12-18T12:01:43.968Z,0.32
2022-12-18T12:02:40.048Z,0.32
2022-12-18T12:03:40.395Z,0.17
2022-12-18T12:04:39.943Z,0.20
2022-12-18T12:05:39.896Z,0.20
2022-12-18T12:06:39.889Z,0.12
2022-12-18T12:07:39.876Z,0.30
2022-12-18T12:08:39.950Z,0.27
2022-12-18T12:09:39.856Z,0.37
2022-12-18T12:10:39.830Z,0.33
2022-12-18T12:11:39.825Z,0.37
2022-12-18T12:12:43.949Z,0.36
2022-12-18T12:13:40.180Z,0.22
2022-12-18T12:14:39.782Z,0.25
2022-12-18T12:15:39.776Z,0.33
2022-12-18T12:16:39.800Z,0.32
2022-12-18T12:17:39.746Z,0.25
2022-12-18T12:18:39.722Z,0.15
2022-12-18T12:19:39.715Z,0.08
2022-12-18T12:20:39.704Z,0.07
2022-12-18T12:21:39.686Z,0.04
2022-12-18T12:22:39.683Z,0.04
2022-12-18T12:23:39.710Z,0.11
2022-12-18T12:24:39.742Z,0.04
2022-12-18T12:25:39.638Z,0.08
2022-12-18T12:26:39.627Z,0.08
2022-12-18T12:27:39.606Z,0.22
2022-12-18T12:28:39.997Z,0.25
2022-12-18T12:29:39.585Z,0.25
2022-12-18T12:30:39.571Z,0.27
2022-12-18T12:31:39.618Z,0.20
2022-12-18T12:32:39.538Z,0.14
2022-12-18T12:33:39.872Z,0.12
2022-12-18T12:34:39.509Z,0.26
2022-12-18T12:35:39.501Z,0.25
2022-12-18T12:36:39.484Z,0.20
2022-12-18T12:37:39.477Z,0.35
2022-12-18T12:38:39.461Z,0.36
2022-12-18T12:39:39.440Z,0.41
2022-12-18T12:40:52.525Z,0.45
2022-12-18T12:41:39.426Z,0.43
2022-12-18T12:42:39.405Z,0.45
2022-12-18T12:43:42.346Z,0.47
2022-12-18T12:44:39.381Z,0.41
2022-12-18T12:45:39.403Z,0.45
2022-12-18T12:46:39.358Z,0.41
2022-12-18T12:47:39.339Z,0.41
2022-12-18T12:48:39.783Z,0.43
2022-12-18T12:49:40.954Z,0.37
2022-12-18T12:50:39.294Z,0.36
2022-12-18T12:51:39.277Z,0.32
2022-12-18T12:52:39.269Z,0.37
2022-12-18T12:53:39.283Z,0.40
2022-12-18T12:54:39.244Z,0.40
2022-12-18T12:55:39.230Z,0.45
2022-12-18T12:56:39.294Z,0.44
2022-12-18T12:57:39.199Z,0.37